Time;durP1;ratioP1;P1;durP2;ratioP2;P2;SDS_P1;SDS_P2;PMS_P1;PMS_P2;Temp;Humidity;BMP_temperature;BMP_pressure;BME280_temperature;BME280_humidity;BME280_pressure;Samples;Min_cycle;Max_cycle;Signal;HPM_P1;HPM_P2
2021/08/18 00:00:12;;;;;;;;;4.75;3.00;;;;;20.30;56.91;101624.66;5001926;28;45525;-76
2021/08/18 00:02:38;;;;;;;;;3.25;3.25;;;;;20.26;56.53;101601.38;5002009;28;46499;-78
2021/08/18 00:05:05;;;;;;;;;4.00;4.00;;;;;20.29;57.06;101613.88;5001468;28;45435;-78
2021/08/18 00:07:31;;;;;;;;;3.00;3.00;;;;;20.32;56.86;101617.28;5002014;28;45306;-78
2021/08/18 00:09:56;;;;;;;;;2.75;2.75;;;;;20.10;57.16;101577.03;5001729;28;45303;-77
2021/08/18 00:12:22;;;;;;;;;3.50;3.25;;;;;20.28;56.67;101612.13;5000361;28;46927;-78
2021/08/18 00:14:47;;;;;;;;;3.75;3.75;;;;;20.32;56.70;101614.56;5000396;28;45376;-77
2021/08/18 00:17:13;;;;;;;;;1.75;1.25;;;;;20.30;56.71;101611.09;5001960;28;45830;-77
2021/08/18 00:19:38;;;;;;;;;4.00;4.00;;;;;20.30;56.61;101611.09;5001177;28;45312;-77
2021/08/18 00:22:04;;;;;;;;;3.25;2.50;;;;;20.25;57.00;101596.94;5000272;28;45972;-77
2021/08/18 00:24:30;;;;;;;;;3.00;2.75;;;;;20.21;56.93;101594.50;5001525;28;45236;-77
2021/08/18 00:26:55;;;;;;;;;6.00;4.00;;;;;20.22;56.96;101597.13;5000204;28;45197;-78
2021/08/18 00:29:20;;;;;;;;;3.00;3.00;;;;;20.20;56.96;101593.63;5001385;28;45260;-77
2021/08/18 00:31:46;;;;;;;;;4.50;4.00;;;;;20.26;57.14;101606.78;5000187;28;47863;-78
2021/08/18 00:34:11;;;;;;;;;2.00;2.00;;;;;20.16;57.39;101575.78;5001268;28;45427;-77
2021/08/18 00:36:36;;;;;;;;;3.75;2.25;;;;;20.22;57.05;101586.28;5001352;28;45197;-78
2021/08/18 00:39:02;;;;;;;;;4.50;2.75;;;;;20.27;56.92;101597.72;5001329;28;45155;-77
2021/08/18 00:41:27;;;;;;;;;3.00;3.00;;;;;20.25;57.29;101594.22;5001406;28;45705;-77
2021/08/18 00:43:53;;;;;;;;;2.50;2.50;;;;;20.21;57.07;101589.06;5001186;28;45173;-77
2021/08/18 00:46:18;;;;;;;;;2.00;2.00;;;;;20.14;57.15;101577.72;5001418;28;45280;-77
2021/08/18 00:48:44;;;;;;;;;2.50;2.50;;;;;20.18;56.91;101596.44;5001154;28;45217;-77
2021/08/18 00:51:11;;;;;;;;;4.50;2.00;;;;;20.21;57.41;101594.50;5000962;28;46497;-77
2021/08/18 00:53:36;;;;;;;;;5.75;3.75;;;;;20.17;56.89;101591.97;5000777;28;45248;-77
2021/08/18 00:56:02;;;;;;;;;4.50;3.00;;;;;20.13;57.49;101593.13;4999031;28;45350;-77
2021/08/18 00:58:28;;;;;;;;;2.00;2.00;;;;;20.13;57.49;101585.00;4999657;28;45517;-77
2021/08/18 01:00:54;;;;;;;;;2.50;2.50;;;;;20.13;57.29;101586.81;4999570;28;47181;-78
2021/08/18 01:03:19;;;;;;;;;2.50;2.50;;;;;20.08;57.17;101581.69;4999681;28;45221;-77
2021/08/18 01:05:45;;;;;;;;;5.75;3.00;;;;;20.08;57.54;101584.41;4999696;28;45277;-77
2021/08/18 01:08:10;;;;;;;;;4.00;3.00;;;;;20.05;57.53;101581.00;4999398;28;45336;-77
2021/08/18 01:10:36;;;;;;;;;5.00;2.25;;;;;20.15;57.54;101595.75;4999686;28;45374;-77
2021/08/18 01:13:03;;;;;;;;;3.00;3.00;;;;;20.09;57.13;101583.41;4998141;28;45667;-77
2021/08/18 01:15:31;;;;;;;;;2.00;2.00;;;;;20.13;57.05;101589.50;4999703;28;45248;-78
2021/08/18 01:17:59;;;;;;;;;4.50;3.25;;;;;20.18;57.15;101592.84;4999169;28;45468;-76
2021/08/18 01:20:34;;;;;;;;;3.25;2.00;;;;;20.17;57.18;101586.53;4999122;28;46448;-78
2021/08/18 01:23:02;;;;;;;;;4.25;3.25;;;;;20.15;57.42;101595.75;4998249;28;45192;-77
2021/08/18 01:25:27;;;;;;;;;3.00;3.00;;;;;20.14;57.10;101594.84;4999437;28;45276;-78
2021/08/18 01:27:55;;;;;;;;;2.75;2.75;;;;;20.07;57.45;101579.06;4999166;28;45429;-77
2021/08/18 01:30:23;;;;;;;;;3.00;3.00;;;;;20.15;57.30;101590.31;4997800;28;46372;-77
2021/08/18 01:32:50;;;;;;;;;3.50;3.50;;;;;20.16;56.90;101576.69;4999013;28;45543;-77
2021/08/18 01:35:22;;;;;;;;;2.25;2.25;;;;;20.15;57.19;101576.78;4999144;28;45273;-77
2021/08/18 01:37:47;;;;;;;;;3.00;3.00;;;;;20.11;57.15;101572.47;4999012;28;45382;-78
2021/08/18 01:40:13;;;;;;;;;3.00;2.50;;;;;20.11;57.15;101577.91;4999115;28;45309;-76
2021/08/18 01:42:39;;;;;;;;;5.00;3.00;;;;;20.10;57.43;101585.16;4998685;28;45682;-77
2021/08/18 01:45:06;;;;;;;;;2.00;2.00;;;;;20.10;57.01;101581.59;4999596;28;45315;-78
2021/08/18 01:47:31;;;;;;;;;7.00;2.75;;;;;20.09;57.24;101578.00;4998637;28;45257;-76
2021/08/18 01:49:57;;;;;;;;;2.75;2.00;;;;;20.04;57.34;101571.09;4997379;28;47275;-76
2021/08/18 01:52:22;;;;;;;;;2.75;2.75;;;;;20.03;57.21;101566.63;4997380;28;45247;-76
2021/08/18 01:54:47;;;;;;;;;2.25;2.25;;;;;20.08;57.21;101573.56;4997750;28;45283;-77
2021/08/18 01:57:13;;;;;;;;;2.25;1.75;;;;;19.99;56.75;101565.94;4958899;28;1137920;-76
2021/08/18 01:59:38;;;;;;;;;2.00;2.00;;;;;19.95;57.07;101557.13;5000440;28;45330;-76
2021/08/18 02:02:04;;;;;;;;;4.00;3.00;;;;;20.00;57.09;101570.41;4999002;28;45368;-78
2021/08/18 02:04:29;;;;;;;;;4.00;4.00;;;;;20.01;57.46;101574.84;5000042;28;45325;-77
2021/08/18 02:06:54;;;;;;;;;3.25;2.25;;;;;20.04;57.12;101560.25;4998698;28;45498;-77
2021/08/18 02:09:20;;;;;;;;;1.75;1.75;;;;;20.06;57.03;101566.47;5000373;28;45542;-78
2021/08/18 02:11:45;;;;;;;;;2.25;2.25;;;;;19.97;57.27;101555.19;4999828;28;45319;-77
2021/08/18 02:14:10;;;;;;;;;2.75;1.75;;;;;19.99;57.56;101563.25;5000418;28;45352;-77
2021/08/18 02:16:36;;;;;;;;;4.00;3.00;;;;;19.99;57.56;101565.94;4999817;28;45378;-77
2021/08/18 02:19:01;;;;;;;;;3.00;3.00;;;;;19.96;57.53;101563.41;4999847;28;46092;-78
2021/08/18 02:21:26;;;;;;;;;3.00;2.75;;;;;19.97;57.29;101566.03;4999560;28;45243;-78
2021/08/18 02:23:52;;;;;;;;;1.50;1.50;;;;;20.00;57.67;101567.72;5000071;28;45368;-78
2021/08/18 02:26:17;;;;;;;;;4.50;4.00;;;;;19.97;57.69;101566.03;4999841;28;45327;-77
2021/08/18 02:28:42;;;;;;;;;2.25;2.25;;;;;20.03;57.72;101561.22;4998368;28;47093;-77
2021/08/18 02:31:09;;;;;;;;;3.00;2.00;;;;;19.99;57.93;101550.56;4998336;28;45591;-77
2021/08/18 02:33:35;;;;;;;;;2.50;2.50;;;;;19.91;57.65;101541.13;4999855;28;45233;-78
2021/08/18 02:36:00;;;;;;;;;3.00;2.00;;;;;19.93;57.28;101553.66;4999408;28;45311;-77
2021/08/18 02:38:26;;;;;;;;;2.00;2.00;;;;;19.86;57.60;101532.41;5000071;28;45335;-77
2021/08/18 02:40:51;;;;;;;;;3.00;3.00;;;;;19.93;57.60;101558.16;4999643;28;45182;-76
2021/08/18 02:43:16;;;;;;;;;5.25;3.25;;;;;19.90;57.67;101550.25;4999861;28;45667;-78
2021/08/18 02:45:42;;;;;;;;;4.00;2.75;;;;;19.80;57.76;101537.22;4999660;28;45280;-78
2021/08/18 02:48:08;;;;;;;;;3.00;3.00;;;;;19.91;57.86;101555.59;4999557;28;45288;-78
2021/08/18 02:50:33;;;;;;;;;3.00;3.00;;;;;19.89;57.68;101546.66;4999295;28;45438;-77
2021/08/18 02:52:59;;;;;;;;;2.50;2.50;;;;;19.86;57.83;101537.84;4999582;28;45315;-77
2021/08/18 02:55:24;;;;;;;;;2.25;2.25;;;;;19.91;57.74;101555.59;4997727;28;45397;-76
2021/08/18 02:57:50;;;;;;;;;3.50;2.75;;;;;19.79;57.63;101523.78;4999478;28;45309;-77
2021/08/18 03:00:16;;;;;;;;;3.00;2.50;;;;;19.88;57.54;101539.50;4999490;28;45287;-77
2021/08/18 03:02:41;;;;;;;;;4.00;2.25;;;;;19.89;57.60;101543.94;4999531;28;45316;-78
2021/08/18 03:05:08;;;;;;;;;3.00;3.00;;;;;19.91;57.65;101544.75;4999185;28;45236;-77
2021/08/18 03:07:33;;;;;;;;;2.75;2.25;;;;;19.86;57.87;101530.56;4999218;28;46109;-77
2021/08/18 03:09:58;;;;;;;;;4.00;4.00;;;;;19.94;57.91;101551.81;4999378;28;45318;-76
2021/08/18 03:12:24;;;;;;;;;3.00;2.00;;;;;19.81;57.71;101527.25;4999610;28;45582;-77
2021/08/18 03:14:49;;;;;;;;;5.50;3.25;;;;;19.93;58.20;101550.94;4997926;28;45269;-77
2021/08/18 03:17:14;;;;;;;;;4.00;4.00;;;;;19.87;58.47;101543.16;4999891;28;45504;-77
2021/08/18 03:19:40;;;;;;;;;4.25;3.25;;;;;19.95;58.27;101546.28;5002289;28;45410;-78
2021/08/18 03:22:05;;;;;;;;;3.25;3.25;;;;;19.92;58.19;101541.06;5003099;28;45335;-77
2021/08/18 03:24:31;;;;;;;;;3.25;3.00;;;;;19.71;58.52;101505.25;5002327;28;45201;-76
2021/08/18 03:26:56;;;;;;;;;4.25;2.75;;;;;19.79;58.25;101518.34;5001075;28;47539;-78
2021/08/18 03:29:22;;;;;;;;;6.00;3.75;;;;;19.92;58.15;101529.34;5002422;28;45297;-77
2021/08/18 03:31:47;;;;;;;;;3.00;3.00;;;;;19.97;57.93;101538.06;5002735;28;45208;-77
2021/08/18 03:34:12;;;;;;;;;3.00;3.00;;;;;19.89;58.07;101527.69;5002221;28;45650;-77
2021/08/18 03:36:38;;;;;;;;;3.00;3.00;;;;;19.66;57.98;101493.78;5000764;28;46946;-77
2021/08/18 03:39:04;;;;;;;;;3.75;3.75;;;;;19.92;58.06;101534.78;5002374;28;45261;-77
2021/08/18 03:41:29;;;;;;;;;3.50;3.50;;;;;19.93;57.87;101531.06;5001268;28;45577;-78
2021/08/18 03:43:55;;;;;;;;;4.00;3.00;;;;;19.90;57.78;101534.84;5001995;28;45295;-76
2021/08/18 03:46:20;;;;;;;;;3.00;2.00;;;;;19.88;57.85;101527.78;5002165;28;45403;-77
2021/08/18 03:48:45;;;;;;;;;5.00;5.00;;;;;19.91;58.04;101531.19;5001994;28;45375;-77
2021/08/18 03:51:11;;;;;;;;;3.00;3.00;;;;;19.82;58.13;101515.47;5002233;28;45374;-77
2021/08/18 03:53:36;;;;;;;;;3.00;3.00;;;;;19.88;58.03;101534.09;5002119;28;45426;-76
2021/08/18 03:56:02;;;;;;;;;4.25;4.25;;;;;19.82;57.89;101515.47;5001677;28;45413;-78
2021/08/18 03:58:27;;;;;;;;;4.75;3.25;;;;;19.90;58.14;101532.16;5002066;28;45346;-77
2021/08/18 04:00:53;;;;;;;;;4.50;3.25;;;;;19.91;57.83;101533.91;5002285;28;45410;-77
2021/08/18 04:03:18;;;;;;;;;4.00;2.25;;;;;19.91;58.16;101533.00;5000650;28;46020;-76
2021/08/18 04:05:44;;;;;;;;;4.50;3.75;;;;;19.94;58.22;101538.25;5001555;28;46771;-76
2021/08/18 04:08:11;;;;;;;;;7.00;5.00;;;;;19.91;58.04;101530.31;5001779;28;45386;-77
2021/08/18 04:10:36;;;;;;;;;3.75;3.25;;;;;19.89;57.97;101535.81;5002176;28;45288;-77
2021/08/18 04:13:02;;;;;;;;;5.00;4.00;;;;;19.80;58.19;101528.25;5001715;28;45438;-77
2021/08/18 04:15:34;;;;;;;;;4.50;3.25;;;;;19.85;58.00;101536.09;5001934;28;45359;-77
2021/08/18 04:18:00;;;;;;;;;6.00;5.00;;;;;19.89;58.06;101540.38;5001652;28;45257;-77
2021/08/18 04:20:26;;;;;;;;;6.50;4.00;;;;;19.92;58.35;101546.47;5001595;28;45429;-76
2021/08/18 04:22:52;;;;;;;;;4.75;4.25;;;;;19.84;58.29;101526.22;5001545;28;45497;-76
2021/08/18 04:25:18;;;;;;;;;3.50;3.00;;;;;19.76;58.36;101519.44;5000192;28;47354;-77
2021/08/18 04:27:44;;;;;;;;;4.50;3.75;;;;;19.83;58.13;101538.00;5001443;28;45245;-77
2021/08/18 04:30:11;;;;;;;;;4.50;3.50;;;;;19.82;58.50;101544.41;5000759;28;45412;-77
2021/08/18 04:32:37;;;;;;;;;3.00;3.00;;;;;19.82;58.52;101544.41;5001208;28;45383;-76
2021/08/18 04:35:04;;;;;;;;;5.75;3.75;;;;;19.77;58.20;101536.53;5001288;28;45443;-77
2021/08/18 04:37:30;;;;;;;;;8.00;6.00;;;;;19.75;58.53;101535.78;5001412;28;45187;-76
2021/08/18 04:39:55;;;;;;;;;5.00;4.50;;;;;19.85;58.40;101547.81;5001560;28;45417;-76
2021/08/18 04:42:20;;;;;;;;;3.25;3.25;;;;;19.75;58.57;101527.63;5001428;28;45379;-77
2021/08/18 04:44:46;;;;;;;;;4.00;4.00;;;;;19.77;58.36;101528.41;5001244;28;45257;-77
2021/08/18 04:47:11;;;;;;;;;3.25;3.25;;;;;19.78;58.32;101527.47;5001287;28;45280;-77
2021/08/18 04:49:36;;;;;;;;;8.00;6.00;;;;;19.80;58.60;101530.94;5000032;28;45498;-76
2021/08/18 04:52:02;;;;;;;;;4.50;4.25;;;;;19.84;58.33;101543.34;5001070;28;45280;-78
2021/08/18 04:54:27;;;;;;;;;4.00;4.00;;;;;19.78;58.72;101533.75;5001206;28;45229;-78
2021/08/18 04:56:53;;;;;;;;;4.50;3.25;;;;;19.82;58.42;101549.81;5000956;28;45338;-77
2021/08/18 04:59:18;;;;;;;;;3.00;3.00;;;;;19.87;58.40;101551.28;5001412;28;45330;-77
2021/08/18 05:01:43;;;;;;;;;5.00;5.00;;;;;19.83;58.74;101543.44;5001020;28;45359;-77
2021/08/18 05:04:09;;;;;;;;;4.00;4.00;;;;;19.86;58.89;101544.13;5000912;28;46182;-77
2021/08/18 05:06:34;;;;;;;;;4.00;4.00;;;;;19.80;58.76;101534.53;5000728;28;45205;-77
2021/08/18 05:09:00;;;;;;;;;3.25;3.25;;;;;19.88;58.70;101544.03;4999850;28;45261;-76
2021/08/18 05:11:25;;;;;;;;;3.25;3.25;;;;;19.77;58.74;101523.88;5001036;28;45271;-77
2021/08/18 05:13:51;;;;;;;;;4.00;3.00;;;;;19.86;58.75;101541.41;4999574;28;47910;-77
2021/08/18 05:16:16;;;;;;;;;7.00;5.00;;;;;19.66;58.83;101503.75;5000727;28;45294;-77
2021/08/18 05:18:41;;;;;;;;;7.00;6.00;;;;;19.83;59.16;101527.16;5000940;28;45804;-77
2021/08/18 05:21:07;;;;;;;;;8.00;4.75;;;;;19.82;58.65;101534.44;5000646;28;45427;-77
2021/08/18 05:23:32;;;;;;;;;3.25;3.00;;;;;19.84;58.67;101535.22;5000638;28;46471;-77
2021/08/18 05:25:57;;;;;;;;;4.75;4.25;;;;;19.80;58.85;101536.38;4999345;28;45296;-77
2021/08/18 05:28:23;;;;;;;;;3.75;3.75;;;;;19.63;58.99;101508.41;5000704;28;45419;-77
2021/08/18 05:30:48;;;;;;;;;4.00;4.00;;;;;19.65;58.81;101512.88;5000617;28;45471;-77
2021/08/18 05:33:13;;;;;;;;;4.00;4.00;;;;;19.72;58.81;101523.22;5000330;28;46388;-78
2021/08/18 05:35:39;;;;;;;;;4.25;4.25;;;;;19.79;58.94;101534.59;5000427;28;45281;-78
2021/08/18 05:38:04;;;;;;;;;6.00;3.00;;;;;19.82;59.03;101542.56;5000537;28;45343;-76
2021/08/18 05:40:29;;;;;;;;;4.00;3.00;;;;;19.78;58.93;101544.59;5000192;28;45409;-77
2021/08/18 05:42:55;;;;;;;;;3.25;3.25;;;;;19.84;59.00;101556.88;5000318;28;45325;-78
2021/08/18 05:45:20;;;;;;;;;4.25;4.25;;;;;19.85;58.97;101555.06;5000320;28;45398;-77
2021/08/18 05:47:45;;;;;;;;;4.00;4.00;;;;;19.75;59.17;101530.34;5000328;28;45273;-76
2021/08/18 05:50:11;;;;;;;;;4.00;4.00;;;;;19.80;58.95;101547.22;5000207;28;45459;-78
2021/08/18 05:52:37;;;;;;;;;5.00;4.00;;;;;19.83;58.99;101552.44;5000076;28;45246;-77
2021/08/18 05:55:05;;;;;;;;;8.00;6.00;;;;;19.89;59.09;101568.31;4998988;28;45402;-77
2021/08/18 05:57:30;;;;;;;;;4.00;4.00;;;;;19.87;58.66;101558.56;5000098;28;45387;-77
2021/08/18 05:59:56;;;;;;;;;3.00;3.00;;;;;19.85;58.94;101563.19;5000362;28;45481;-78
2021/08/18 06:02:21;;;;;;;;;4.25;4.00;;;;;19.88;59.07;101555.75;4999807;28;46162;-77
2021/08/18 06:04:46;;;;;;;;;4.00;4.00;;;;;19.81;59.22;101548.94;4999987;28;45433;-77
2021/08/18 06:07:12;;;;;;;;;4.50;4.50;;;;;19.82;59.24;101545.28;5000090;28;45244;-77
2021/08/18 06:09:37;;;;;;;;;5.25;4.00;;;;;19.85;59.12;101555.94;5000170;28;45386;-76
2021/08/18 06:12:07;;;;;;;;;5.25;5.00;;;;;19.90;59.38;101561.09;4999690;28;46098;-76
2021/08/18 06:14:33;;;;;;;;;4.00;4.00;;;;;19.92;59.20;101564.56;4998893;28;45213;-77
2021/08/18 06:16:58;;;;;;;;;4.75;4.75;;;;;19.81;59.20;101543.50;5000240;28;45150;-76
2021/08/18 06:19:24;;;;;;;;;4.00;4.00;;;;;19.86;59.23;101559.50;4999849;28;45301;-76
2021/08/18 06:21:50;;;;;;;;;5.00;5.00;;;;;19.90;59.47;101563.81;4999786;28;45205;-77
2021/08/18 06:24:26;;;;;;;;;4.25;4.25;;;;;19.90;59.08;101566.50;4999900;28;45424;-77
2021/08/18 06:26:52;;;;;;;;;2.50;2.50;;;;;19.77;59.46;101552.81;4999857;28;45268;-77
2021/08/18 06:29:17;;;;;;;;;8.25;5.25;;;;;19.78;59.26;101559.97;4998610;28;45347;-78
2021/08/18 06:31:43;;;;;;;;;5.00;5.00;;;;;19.84;59.53;101565.00;4999807;28;45984;-76
2021/08/18 06:34:09;;;;;;;;;5.00;5.00;;;;;19.82;59.29;101561.53;4999378;28;45272;-76
2021/08/18 06:36:34;;;;;;;;;3.75;3.75;;;;;19.83;59.07;101562.38;5000080;28;45370;-76
2021/08/18 06:38:59;;;;;;;;;4.75;4.00;;;;;19.82;59.47;101569.66;4998431;28;45518;-76
2021/08/18 06:41:25;;;;;;;;;4.50;4.50;;;;;19.83;59.31;101567.81;4999908;28;45228;-77
2021/08/18 06:43:51;;;;;;;;;6.25;5.25;;;;;19.90;59.24;101577.34;4999533;28;45217;-77
2021/08/18 06:46:16;;;;;;;;;6.00;5.75;;;;;19.91;59.45;101576.38;4999842;28;45229;-76
2021/08/18 06:48:42;;;;;;;;;4.00;4.00;;;;;19.81;59.45;101565.19;4999631;28;45398;-77
2021/08/18 06:51:07;;;;;;;;;4.25;4.00;;;;;19.89;59.80;101576.44;4997980;28;47592;-77
2021/08/18 06:53:32;;;;;;;;;3.25;2.00;;;;;19.83;59.81;101566.00;5002116;28;45262;-77
2021/08/18 06:55:58;;;;;;;;;7.50;5.50;;;;;19.88;59.48;101581.97;5001723;28;45327;-78
2021/08/18 06:58:23;;;;;;;;;4.25;3.25;;;;;19.85;59.53;101576.75;5002839;28;45256;-77
2021/08/18 07:00:48;;;;;;;;;4.75;4.75;;;;;19.84;59.73;101577.69;5003178;28;45993;-77
2021/08/18 07:03:14;;;;;;;;;4.25;4.25;;;;;19.80;59.99;101568.88;5002791;28;45229;-77
2021/08/18 07:05:39;;;;;;;;;7.00;6.00;;;;;19.85;59.35;101579.47;5001377;28;45343;-77
2021/08/18 07:08:05;;;;;;;;;4.75;3.75;;;;;19.80;59.47;101560.75;5002818;28;45209;-78
2021/08/18 07:10:30;;;;;;;;;7.00;6.00;;;;;19.82;59.45;101572.38;5002596;28;45457;-77
2021/08/18 07:12:55;;;;;;;;;6.75;6.75;;;;;19.89;59.61;101581.88;5002795;28;45450;-78
2021/08/18 07:15:21;;;;;;;;;7.00;6.00;;;;;19.82;59.98;101566.94;5002794;28;45506;-77
2021/08/18 07:17:46;;;;;;;;;6.00;3.50;;;;;19.91;59.47;101577.25;5002582;28;45308;-77
2021/08/18 07:20:12;;;;;;;;;5.00;5.00;;;;;19.84;59.59;101558.72;5002305;28;46318;-77
2021/08/18 07:22:38;;;;;;;;;5.00;5.00;;;;;19.90;59.93;101564.66;5001287;28;45256;-77
2021/08/18 07:25:04;;;;;;;;;5.25;3.75;;;;;19.88;59.56;101561.19;5001573;28;45415;-77
2021/08/18 07:27:30;;;;;;;;;5.75;5.75;;;;;19.89;59.52;101562.91;5002462;28;45418;-78
2021/08/18 07:29:57;;;;;;;;;4.75;4.00;;;;;20.01;59.42;101568.56;5001047;28;46990;-76
2021/08/18 07:32:22;;;;;;;;;5.00;4.00;;;;;19.96;59.98;101556.19;5002347;28;45203;-78
2021/08/18 07:34:48;;;;;;;;;5.00;5.00;;;;;20.01;59.65;101568.56;5002206;28;45446;-77
2021/08/18 07:37:13;;;;;;;;;5.75;4.75;;;;;20.04;59.73;101571.09;5002523;28;45495;-78
2021/08/18 07:39:39;;;;;;;;;4.00;3.75;;;;;19.98;59.86;101561.50;5000887;28;48298;-76
2021/08/18 07:42:04;;;;;;;;;3.75;3.00;;;;;20.02;59.64;101563.06;5002221;28;45194;-78
2021/08/18 07:44:30;;;;;;;;;4.50;4.50;;;;;19.94;59.39;101551.81;5002512;28;45452;-77
2021/08/18 07:46:56;;;;;;;;;3.00;3.00;;;;;20.04;59.76;101569.25;5002104;28;45490;-77
2021/08/18 07:49:21;;;;;;;;;3.00;3.00;;;;;20.05;59.43;101562.03;5001724;28;46061;-78
2021/08/18 07:51:46;;;;;;;;;5.25;4.25;;;;;20.07;59.92;101565.50;5000988;28;45471;-76
2021/08/18 07:54:12;;;;;;;;;4.00;3.00;;;;;20.07;60.01;101560.94;5002428;28;45347;-77
2021/08/18 07:56:37;;;;;;;;;4.75;4.00;;;;;19.96;59.92;101539.94;5002040;28;45347;-77
2021/08/18 07:59:02;;;;;;;;;4.00;3.00;;;;;20.02;59.58;101546.81;5000499;28;47097;-78
2021/08/18 08:01:28;;;;;;;;;2.75;2.00;;;;;20.13;59.67;101560.59;5000912;28;45970;-77
2021/08/18 08:03:53;;;;;;;;;4.25;4.25;;;;;20.18;59.52;101568.47;5001810;28;45440;-77
2021/08/18 08:06:18;;;;;;;;;3.25;3.25;;;;;20.16;59.44;101560.41;5000214;28;45309;-77
2021/08/18 08:08:44;;;;;;;;;4.00;4.00;;;;;20.15;59.44;101560.50;5001759;28;45296;-76
2021/08/18 08:11:09;;;;;;;;;4.75;4.50;;;;;20.21;59.42;101561.97;5000579;28;45345;-76
2021/08/18 08:13:35;;;;;;;;;3.50;3.50;;;;;20.22;59.79;101563.72;5000573;28;45344;-78
2021/08/18 08:16:00;;;;;;;;;3.25;3.25;;;;;20.21;59.26;101556.53;5001887;28;45500;-76
2021/08/18 08:18:25;;;;;;;;;3.75;3.00;;;;;20.29;59.29;101565.09;5001413;28;45271;-78
2021/08/18 08:20:51;;;;;;;;;5.25;2.50;;;;;20.30;59.34;101558.72;5001686;28;45250;-76
2021/08/18 08:23:16;;;;;;;;;3.00;3.00;;;;;20.28;59.41;101564.22;5001701;28;45358;-77
2021/08/18 08:25:42;;;;;;;;;4.00;4.00;;;;;20.28;59.12;101566.03;5000372;28;45467;-78
2021/08/18 08:28:07;;;;;;;;;3.00;3.00;;;;;20.22;59.37;101555.59;5001396;28;46323;-76
2021/08/18 08:30:33;;;;;;;;;5.00;4.00;;;;;20.25;59.36;101558.13;5001671;28;45237;-77
2021/08/18 08:32:58;;;;;;;;;3.75;3.75;;;;;20.29;59.59;101565.94;5001646;28;45324;-77
2021/08/18 08:35:24;;;;;;;;;3.50;3.50;;;;;20.29;59.56;101565.09;5001445;28;45288;-77
2021/08/18 08:37:49;;;;;;;;;4.75;4.00;;;;;20.33;59.28;101566.63;5001198;28;45799;-77
2021/08/18 08:40:15;;;;;;;;;4.00;4.00;;;;;20.25;59.46;101548.16;5001501;28;45292;-77
2021/08/18 08:42:41;;;;;;;;;4.50;4.50;;;;;20.20;59.20;101550.25;4999923;28;45477;-77
2021/08/18 08:45:09;;;;;;;;;4.00;4.00;;;;;20.36;59.39;101561.03;5000146;28;45518;-77
2021/08/18 08:47:36;;;;;;;;;9.25;6.00;;;;;20.36;59.03;101561.94;4999650;28;48176;-77
2021/08/18 08:50:06;;;;;;;;;2.75;2.75;;;;;20.34;59.00;101557.56;5001183;28;45170;-77
2021/08/18 08:52:33;;;;;;;;;6.50;5.25;;;;;20.27;59.33;101545.34;5001111;28;45339;-77
2021/08/18 08:54:59;;;;;;;;;4.00;4.00;;;;;20.28;59.44;101542.53;5001127;28;45533;-77
2021/08/18 08:57:24;;;;;;;;;5.50;4.00;;;;;20.51;59.12;101591.78;5000845;28;45445;-77
2021/08/18 08:59:50;;;;;;;;;2.00;2.00;;;;;20.54;59.11;101583.44;4999952;28;45343;-78
2021/08/18 09:02:15;;;;;;;;;3.75;3.75;;;;;20.33;59.07;101542.25;5000904;28;45564;-77
2021/08/18 09:04:40;;;;;;;;;4.00;4.00;;;;;20.55;59.33;101587.94;4999585;28;45577;-78
2021/08/18 09:07:07;;;;;;;;;4.00;3.75;;;;;20.55;59.21;101582.50;5000742;28;46064;-76
2021/08/18 09:09:34;;;;;;;;;4.00;4.00;;;;;20.55;59.18;101582.50;5001367;28;45387;-77
2021/08/18 09:12:08;;;;;;;;;5.00;5.00;;;;;20.50;59.30;101566.50;4999746;28;45273;-77
2021/08/18 09:14:34;;;;;;;;;5.50;5.50;;;;;20.54;59.63;101583.44;4999426;28;45350;-77
2021/08/18 09:17:00;;;;;;;;;5.50;4.25;;;;;20.51;59.15;101567.38;4999090;28;46220;-78
2021/08/18 09:19:32;;;;;;;;;4.50;4.50;;;;;20.50;58.87;101563.78;5000581;28;45291;-78
2021/08/18 09:22:07;;;;;;;;;5.00;5.00;;;;;20.58;59.43;101582.31;5000855;28;45166;-79
2021/08/18 09:24:33;;;;;;;;;4.75;3.50;;;;;20.57;58.81;101575.13;5000801;28;45307;-78
2021/08/18 09:27:08;;;;;;;;;5.00;5.00;;;;;20.61;58.77;101571.25;5000416;28;46159;-78
2021/08/18 09:29:44;;;;;;;;;5.00;5.00;;;;;20.61;59.11;101573.97;5000676;28;45240;-78
2021/08/18 09:32:32;;;;;;;;;4.00;4.00;;;;;20.59;58.42;101565.06;5000775;28;45174;-78
2021/08/18 09:35:01;;;;;;;;;4.75;4.75;;;;;20.44;58.72;101542.47;5000543;28;45501;-78
2021/08/18 09:37:27;;;;;;;;;6.75;4.75;;;;;20.66;58.76;101573.72;5000489;28;46513;-77
2021/08/18 09:39:54;;;;;;;;;5.25;4.00;;;;;20.69;58.63;101570.81;5000596;28;45435;-77
2021/08/18 09:42:26;;;;;;;;;4.75;4.75;;;;;20.68;58.39;101572.69;4999290;28;45488;-78
2021/08/18 09:45:17;;;;;;;;;4.00;3.00;;;;;20.75;58.55;101562.31;5000623;28;45227;-78
2021/08/18 09:47:54;;;;;;;;;5.25;3.50;;;;;20.73;58.44;101566.94;4999964;28;45971;-78
2021/08/18 09:50:23;;;;;;;;;4.75;4.75;;;;;20.78;58.41;101566.66;5000087;28;45478;-78
2021/08/18 09:52:50;;;;;;;;;5.50;4.50;;;;;20.70;58.39;101556.31;5000511;28;45417;-77
2021/08/18 09:55:24;;;;;;;;;3.75;3.75;;;;;20.82;58.26;101562.81;5000011;28;45458;-77
2021/08/18 09:57:52;;;;;;;;;6.00;4.00;;;;;20.84;58.01;101559.00;5000368;28;46247;-78
2021/08/18 10:00:19;;;;;;;;;3.00;3.00;;;;;20.81;58.76;101544.78;4999945;28;45523;-78
2021/08/18 10:02:45;;;;;;;;;5.50;4.00;;;;;20.84;58.64;101548.16;5000235;28;45351;-79
2021/08/18 10:05:12;;;;;;;;;3.00;3.00;;;;;20.87;57.67;101550.69;5000031;28;45478;-78
2021/08/18 10:07:38;;;;;;;;;2.50;2.50;;;;;20.88;58.49;101554.25;4999956;28;47006;-78
2021/08/18 10:10:04;;;;;;;;;3.00;3.00;;;;;20.87;58.46;101555.25;5000092;28;45209;-78
2021/08/18 10:12:31;;;;;;;;;5.00;3.75;;;;;20.97;58.96;101566.41;5000231;28;45170;-78
2021/08/18 10:15:00;;;;;;;;;2.00;2.00;;;;;20.94;58.89;101567.44;4999874;28;45374;-78
2021/08/18 10:17:25;;;;;;;;;2.00;2.00;;;;;20.90;58.69;101565.91;4999813;28;46967;-78
2021/08/18 10:19:52;;;;;;;;;1.00;1.00;;;;;20.88;59.21;101557.88;4999711;28;45272;-78
2021/08/18 10:22:28;;;;;;;;;2.00;2.00;;;;;20.90;58.61;101557.78;4998796;28;45265;-77
2021/08/18 10:24:54;;;;;;;;;2.25;2.25;;;;;20.89;59.06;101553.31;4999889;28;45257;-78
2021/08/18 10:27:45;;;;;;;;;2.25;2.25;;;;;20.98;58.74;101562.69;4999159;28;47397;-78
2021/08/18 10:30:21;;;;;;;;;3.50;2.50;;;;;20.99;58.86;101568.03;5003538;28;45173;-79
2021/08/18 10:32:46;;;;;;;;;1.00;1.00;;;;;20.92;58.86;101545.84;5003259;28;45411;-77
2021/08/18 10:35:36;;;;;;;;;2.00;2.00;;;;;21.00;58.46;101548.06;5003431;28;45244;-77
2021/08/18 10:38:24;;;;;;;;;1.25;1.25;;;;;21.05;57.70;101558.66;5001874;28;47961;-77
2021/08/18 10:40:50;;;;;;;;;2.50;2.50;;;;;21.08;58.00;101545.75;5003126;28;45520;-79
2021/08/18 10:43:55;;;;;;;;;1.00;1.00;;;;;21.14;58.00;101538.16;5003447;28;45248;-77
2021/08/18 10:46:22;;;;;;;;;3.50;3.00;;;;;21.10;57.97;101526.66;5003278;28;45466;-77
2021/08/18 10:48:54;;;;;;;;;1.25;1.25;;;;;21.22;57.61;101533.13;5003004;28;46026;-77
2021/08/18 10:51:37;;;;;;;;;2.00;2.00;;;;;21.23;57.27;101538.47;5003022;28;45533;-78
2021/08/18 10:54:28;;;;;;;;;1.00;1.00;;;;;21.25;57.37;101539.22;5001997;28;45438;-77
2021/08/18 10:56:58;;;;;;;;;2.75;2.75;;;;;21.19;58.09;101523.31;5002774;28;45653;-78
2021/08/18 10:59:35;;;;;;;;;3.00;1.00;;;;;21.31;57.49;101535.22;5002838;28;46679;-78
2021/08/18 11:02:07;;;;;;;;;1.00;1.00;;;;;21.32;57.18;101534.25;5003031;28;45217;-78
2021/08/18 11:04:45;;;;;;;;;3.00;3.00;;;;;21.36;57.60;101529.50;4985166;28;45414;-77
2021/08/18 11:07:12;;;;;;;;;3.00;3.00;;;;;21.39;57.21;101532.03;5002340;28;45574;-78
2021/08/18 11:09:55;;;;;;;;;3.50;3.50;;;;;21.44;57.56;101525.31;5002559;28;45409;-77
2021/08/18 11:12:38;;;;;;;;;5.25;5.25;;;;;21.49;57.11;101529.59;5002746;28;45242;-79
2021/08/18 11:15:19;;;;;;;;;4.25;4.25;;;;;21.52;57.76;101516.69;5002735;28;45268;-79
2021/08/18 11:17:45;;;;;;;;;5.50;5.50;;;;;21.56;57.79;101518.22;5002663;28;45455;-78
2021/08/18 11:20:21;;;;;;;;;7.00;6.00;;;;;21.58;57.57;101518.97;5002330;28;45430;-77
2021/08/18 11:22:52;;;;;;;;;4.00;4.00;;;;;21.53;56.94;101496.69;5001291;28;45463;-77